sensor_id;sensor_type;location;lat;lon;timestamp;temperature;humidity
23411;DHT22;11878;51.774;7.220;2023-05-07T00:01:12;13.70;99.90
23411;DHT22;11878;51.774;7.220;2023-05-07T00:04:13;13.70;99.90
23411;DHT22;11878;51.774;7.220;2023-05-07T00:07:16;13.70;99.90
23411;DHT22;11878;51.774;7.220;2023-05-07T00:10:18;13.70;99.90
23411;DHT22;11878;51.774;7.220;2023-05-07T00:13:20;13.70;99.90
23411;DHT22;11878;51.774;7.220;2023-05-07T00:16:22;13.70;99.90
23411;DHT22;11878;51.774;7.220;2023-05-07T00:19:24;13.60;99.90
23411;DHT22;11878;51.774;7.220;2023-05-07T00:22:25;13.70;99.90
23411;DHT22;11878;51.774;7.220;2023-05-07T00:25:27;13.70;99.90
23411;DHT22;11878;51.774;7.220;2023-05-07T00:28:29;13.70;99.90
23411;DHT22;11878;51.774;7.220;2023-05-07T00:31:31;13.70;99.90
23411;DHT22;11878;51.774;7.220;2023-05-07T00:34:33;13.70;99.90
23411;DHT22;11878;51.774;7.220;2023-05-07T00:37:34;13.70;99.90
23411;DHT22;11878;51.774;7.220;2023-05-07T00:40:36;13.70;99.90
23411;DHT22;11878;51.774;7.220;2023-05-07T00:43:38;13.70;99.90
23411;DHT22;11878;51.774;7.220;2023-05-07T00:46:40;13.70;99.90
23411;DHT22;11878;51.774;7.220;2023-05-07T00:49:43;13.60;99.90
23411;DHT22;11878;51.774;7.220;2023-05-07T00:52:45;13.60;99.90
23411;DHT22;11878;51.774;7.220;2023-05-07T00:55:48;13.70;99.90
23411;DHT22;11878;51.774;7.220;2023-05-07T00:58:50;13.60;99.90
23411;DHT22;11878;51.774;7.220;2023-05-07T01:01:52;13.60;99.90
23411;DHT22;11878;51.774;7.220;2023-05-07T01:04:55;13.60;99.90
23411;DHT22;11878;51.774;7.220;2023-05-07T01:07:57;13.60;99.90
23411;DHT22;11878;51.774;7.220;2023-05-07T01:11:00;13.60;99.90
23411;DHT22;11878;51.774;7.220;2023-05-07T01:14:02;13.50;99.90
23411;DHT22;11878;51.774;7.220;2023-05-07T01:17:04;13.60;99.90
23411;DHT22;11878;51.774;7.220;2023-05-07T01:20:07;13.50;99.90
23411;DHT22;11878;51.774;7.220;2023-05-07T01:23:11;13.50;99.90
23411;DHT22;11878;51.774;7.220;2023-05-07T01:26:12;13.50;99.90
23411;DHT22;11878;51.774;7.220;2023-05-07T01:29:16;13.40;99.90
23411;DHT22;11878;51.774;7.220;2023-05-07T01:32:38;13.50;99.90
23411;DHT22;11878;51.774;7.220;2023-05-07T01:35:45;13.50;99.90
23411;DHT22;11878;51.774;7.220;2023-05-07T01:38:48;13.50;99.90
23411;DHT22;11878;51.774;7.220;2023-05-07T01:41:50;13.30;99.90
23411;DHT22;11878;51.774;7.220;2023-05-07T01:44:52;13.50;99.90
23411;DHT22;11878;51.774;7.220;2023-05-07T01:47:54;13.50;99.90
23411;DHT22;11878;51.774;7.220;2023-05-07T01:50:56;13.40;99.90
23411;DHT22;11878;51.774;7.220;2023-05-07T01:53:58;13.40;99.90
23411;DHT22;11878;51.774;7.220;2023-05-07T01:57:01;13.50;99.90
23411;DHT22;11878;51.774;7.220;2023-05-07T02:00:03;13.50;99.90
23411;DHT22;11878;51.774;7.220;2023-05-07T02:03:15;13.50;99.90
23411;DHT22;11878;51.774;7.220;2023-05-07T02:06:27;13.30;99.90
23411;DHT22;11878;51.774;7.220;2023-05-07T02:09:34;13.40;99.90
23411;DHT22;11878;51.774;7.220;2023-05-07T02:12:36;13.40;99.90
23411;DHT22;11878;51.774;7.220;2023-05-07T02:15:38;13.40;99.90
23411;DHT22;11878;51.774;7.220;2023-05-07T02:18:40;13.40;99.90
23411;DHT22;11878;51.774;7.220;2023-05-07T02:21:42;13.40;99.90
23411;DHT22;11878;51.774;7.220;2023-05-07T02:24:43;13.40;99.90
23411;DHT22;11878;51.774;7.220;2023-05-07T02:27:46;13.40;99.90
23411;DHT22;11878;51.774;7.220;2023-05-07T02:30:48;13.40;99.90
23411;DHT22;11878;51.774;7.220;2023-05-07T02:33:50;13.30;99.90
23411;DHT22;11878;51.774;7.220;2023-05-07T02:36:52;13.40;99.90
23411;DHT22;11878;51.774;7.220;2023-05-07T02:39:58;13.40;99.90
23411;DHT22;11878;51.774;7.220;2023-05-07T02:42:59;13.40;99.90
23411;DHT22;11878;51.774;7.220;2023-05-07T02:46:06;13.30;99.90
23411;DHT22;11878;51.774;7.220;2023-05-07T02:49:12;13.30;99.90
23411;DHT22;11878;51.774;7.220;2023-05-07T02:52:14;13.30;99.90
23411;DHT22;11878;51.774;7.220;2023-05-07T02:55:16;13.40;99.90
23411;DHT22;11878;51.774;7.220;2023-05-07T02:58:17;13.20;99.90
23411;DHT22;11878;51.774;7.220;2023-05-07T03:01:19;13.30;99.90
23411;DHT22;11878;51.774;7.220;2023-05-07T03:04:32;13.30;99.90
23411;DHT22;11878;51.774;7.220;2023-05-07T03:07:35;13.30;99.90
23411;DHT22;11878;51.774;7.220;2023-05-07T03:10:37;13.30;99.90
23411;DHT22;11878;51.774;7.220;2023-05-07T03:13:39;13.30;99.90
23411;DHT22;11878;51.774;7.220;2023-05-07T03:16:41;13.30;99.90
23411;DHT22;11878;51.774;7.220;2023-05-07T03:19:43;13.30;99.90
23411;DHT22;11878;51.774;7.220;2023-05-07T03:22:45;13.30;99.90
23411;DHT22;11878;51.774;7.220;2023-05-07T03:25:46;13.30;99.90
23411;DHT22;11878;51.774;7.220;2023-05-07T03:28:48;13.30;99.90
23411;DHT22;11878;51.774;7.220;2023-05-07T03:31:52;13.30;99.90
23411;DHT22;11878;51.774;7.220;2023-05-07T03:34:53;13.30;99.90
23411;DHT22;11878;51.774;7.220;2023-05-07T03:37:55;13.20;99.90
23411;DHT22;11878;51.774;7.220;2023-05-07T03:40:58;13.30;99.90
23411;DHT22;11878;51.774;7.220;2023-05-07T03:44:00;13.30;99.90
23411;DHT22;11878;51.774;7.220;2023-05-07T03:47:03;13.30;99.90
23411;DHT22;11878;51.774;7.220;2023-05-07T03:50:06;13.30;99.90
23411;DHT22;11878;51.774;7.220;2023-05-07T03:53:08;13.20;99.90
23411;DHT22;11878;51.774;7.220;2023-05-07T03:56:13;13.20;99.90
23411;DHT22;11878;51.774;7.220;2023-05-07T03:59:16;13.20;99.90
23411;DHT22;11878;51.774;7.220;2023-05-07T04:02:19;13.20;99.90
23411;DHT22;11878;51.774;7.220;2023-05-07T04:05:21;13.20;99.90
23411;DHT22;11878;51.774;7.220;2023-05-07T04:08:26;13.10;99.90
23411;DHT22;11878;51.774;7.220;2023-05-07T04:11:29;13.10;99.90
23411;DHT22;11878;51.774;7.220;2023-05-07T04:14:31;13.10;99.90
23411;DHT22;11878;51.774;7.220;2023-05-07T04:17:34;13.10;99.90
23411;DHT22;11878;51.774;7.220;2023-05-07T04:20:36;13.00;99.90
23411;DHT22;11878;51.774;7.220;2023-05-07T04:23:42;13.10;99.90
23411;DHT22;11878;51.774;7.220;2023-05-07T04:26:45;13.10;99.90
23411;DHT22;11878;51.774;7.220;2023-05-07T04:29:48;13.10;99.90
23411;DHT22;11878;51.774;7.220;2023-05-07T04:32:52;13.10;99.90
23411;DHT22;11878;51.774;7.220;2023-05-07T04:35:56;13.10;99.90
23411;DHT22;11878;51.774;7.220;2023-05-07T04:38:57;13.10;99.90
23411;DHT22;11878;51.774;7.220;2023-05-07T04:41:59;13.10;99.90
23411;DHT22;11878;51.774;7.220;2023-05-07T04:45:02;13.20;99.90
23411;DHT22;11878;51.774;7.220;2023-05-07T04:48:08;13.10;99.90
23411;DHT22;11878;51.774;7.220;2023-05-07T04:51:13;13.10;99.90
23411;DHT22;11878;51.774;7.220;2023-05-07T04:54:15;13.20;99.90
23411;DHT22;11878;51.774;7.220;2023-05-07T04:57:17;13.30;99.90
23411;DHT22;11878;51.774;7.220;2023-05-07T05:00:19;13.30;99.90
23411;DHT22;11878;51.774;7.220;2023-05-07T05:03:23;13.30;99.90
23411;DHT22;11878;51.774;7.220;2023-05-07T05:06:25;13.30;99.90
23411;DHT22;11878;51.774;7.220;2023-05-07T05:09:27;13.30;99.90
23411;DHT22;11878;51.774;7.220;2023-05-07T05:12:29;13.20;99.90
23411;DHT22;11878;51.774;7.220;2023-05-07T05:15:34;13.30;99.90
23411;DHT22;11878;51.774;7.220;2023-05-07T05:18:36;13.40;99.90
23411;DHT22;11878;51.774;7.220;2023-05-07T05:21:38;13.40;99.90
23411;DHT22;11878;51.774;7.220;2023-05-07T05:24:42;13.40;99.90
23411;DHT22;11878;51.774;7.220;2023-05-07T05:27:44;13.50;99.90
23411;DHT22;11878;51.774;7.220;2023-05-07T05:30:47;13.50;99.90
23411;DHT22;11878;51.774;7.220;2023-05-07T05:33:49;13.60;99.90
23411;DHT22;11878;51.774;7.220;2023-05-07T05:36:51;13.80;99.90
23411;DHT22;11878;51.774;7.220;2023-05-07T05:39:53;13.80;99.90
23411;DHT22;11878;51.774;7.220;2023-05-07T05:42:56;13.90;99.90
23411;DHT22;11878;51.774;7.220;2023-05-07T05:45:58;14.00;99.90
23411;DHT22;11878;51.774;7.220;2023-05-07T05:49:01;14.10;99.90
23411;DHT22;11878;51.774;7.220;2023-05-07T05:52:03;14.10;99.90
23411;DHT22;11878;51.774;7.220;2023-05-07T05:55:05;14.20;99.90
23411;DHT22;11878;51.774;7.220;2023-05-07T05:58:10;14.40;99.90
23411;DHT22;11878;51.774;7.220;2023-05-07T06:01:17;14.40;99.90
23411;DHT22;11878;51.774;7.220;2023-05-07T06:04:21;14.50;99.90
23411;DHT22;11878;51.774;7.220;2023-05-07T06:07:22;14.30;99.90
23411;DHT22;11878;51.774;7.220;2023-05-07T06:10:25;14.40;99.90
23411;DHT22;11878;51.774;7.220;2023-05-07T06:13:28;14.40;99.90
23411;DHT22;11878;51.774;7.220;2023-05-07T06:16:30;14.40;99.90
23411;DHT22;11878;51.774;7.220;2023-05-07T06:19:32;14.10;99.90
23411;DHT22;11878;51.774;7.220;2023-05-07T06:22:34;14.20;99.90
23411;DHT22;11878;51.774;7.220;2023-05-07T06:25:37;14.30;99.90
23411;DHT22;11878;51.774;7.220;2023-05-07T06:28:39;14.50;99.90
23411;DHT22;11878;51.774;7.220;2023-05-07T06:31:44;14.70;99.90
23411;DHT22;11878;51.774;7.220;2023-05-07T06:34:46;14.70;99.90
23411;DHT22;11878;51.774;7.220;2023-05-07T06:37:49;14.80;99.90
23411;DHT22;11878;51.774;7.220;2023-05-07T06:40:56;14.80;99.90
23411;DHT22;11878;51.774;7.220;2023-05-07T06:43:58;14.90;99.90
23411;DHT22;11878;51.774;7.220;2023-05-07T06:47:06;14.90;99.90
23411;DHT22;11878;51.774;7.220;2023-05-07T06:50:09;15.00;99.90
23411;DHT22;11878;51.774;7.220;2023-05-07T06:53:12;15.10;99.90
23411;DHT22;11878;51.774;7.220;2023-05-07T06:56:14;15.10;99.90
23411;DHT22;11878;51.774;7.220;2023-05-07T06:59:16;15.20;99.90
23411;DHT22;11878;51.774;7.220;2023-05-07T07:02:18;15.20;99.90
23411;DHT22;11878;51.774;7.220;2023-05-07T07:05:21;15.20;99.90
23411;DHT22;11878;51.774;7.220;2023-05-07T07:08:23;15.10;99.90
23411;DHT22;11878;51.774;7.220;2023-05-07T07:11:26;15.10;99.90
23411;DHT22;11878;51.774;7.220;2023-05-07T07:14:28;15.20;99.90
23411;DHT22;11878;51.774;7.220;2023-05-07T07:17:31;15.30;99.90
23411;DHT22;11878;51.774;7.220;2023-05-07T07:20:34;15.40;99.90
23411;DHT22;11878;51.774;7.220;2023-05-07T07:23:35;15.40;99.90
23411;DHT22;11878;51.774;7.220;2023-05-07T07:26:37;15.30;99.90
23411;DHT22;11878;51.774;7.220;2023-05-07T07:29:41;15.60;99.90
23411;DHT22;11878;51.774;7.220;2023-05-07T07:32:43;15.50;99.90
23411;DHT22;11878;51.774;7.220;2023-05-07T07:35:45;15.70;99.90
23411;DHT22;11878;51.774;7.220;2023-05-07T07:38:47;15.60;99.90
23411;DHT22;11878;51.774;7.220;2023-05-07T07:41:51;15.80;99.90
23411;DHT22;11878;51.774;7.220;2023-05-07T07:44:54;15.60;99.90
23411;DHT22;11878;51.774;7.220;2023-05-07T07:47:57;15.50;99.90
23411;DHT22;11878;51.774;7.220;2023-05-07T07:51:00;15.50;99.90
23411;DHT22;11878;51.774;7.220;2023-05-07T07:54:03;15.70;99.90
23411;DHT22;11878;51.774;7.220;2023-05-07T07:57:06;15.70;99.90
23411;DHT22;11878;51.774;7.220;2023-05-07T08:00:09;15.90;99.90
23411;DHT22;11878;51.774;7.220;2023-05-07T08:03:17;15.90;99.90
23411;DHT22;11878;51.774;7.220;2023-05-07T08:06:24;16.00;99.90
23411;DHT22;11878;51.774;7.220;2023-05-07T08:09:27;16.10;99.90
23411;DHT22;11878;51.774;7.220;2023-05-07T08:12:32;16.20;99.90
23411;DHT22;11878;51.774;7.220;2023-05-07T08:15:34;16.40;99.90
23411;DHT22;11878;51.774;7.220;2023-05-07T08:18:37;16.50;99.90
23411;DHT22;11878;51.774;7.220;2023-05-07T08:21:40;16.60;99.90
23411;DHT22;11878;51.774;7.220;2023-05-07T08:24:44;16.60;99.90
23411;DHT22;11878;51.774;7.220;2023-05-07T08:27:47;16.60;99.90
23411;DHT22;11878;51.774;7.220;2023-05-07T08:30:49;16.70;99.90
23411;DHT22;11878;51.774;7.220;2023-05-07T08:33:52;16.90;99.90
23411;DHT22;11878;51.774;7.220;2023-05-07T08:36:54;17.10;99.90
23411;DHT22;11878;51.774;7.220;2023-05-07T08:39:58;17.30;99.90
23411;DHT22;11878;51.774;7.220;2023-05-07T08:43:08;17.40;99.90
23411;DHT22;11878;51.774;7.220;2023-05-07T08:46:18;17.60;99.90
23411;DHT22;11878;51.774;7.220;2023-05-07T08:49:21;17.70;99.90
23411;DHT22;11878;51.774;7.220;2023-05-07T08:52:24;17.70;99.90
23411;DHT22;11878;51.774;7.220;2023-05-07T08:55:28;17.60;99.90
23411;DHT22;11878;51.774;7.220;2023-05-07T08:58:31;17.80;99.90
23411;DHT22;11878;51.774;7.220;2023-05-07T09:01:33;17.90;99.90
23411;DHT22;11878;51.774;7.220;2023-05-07T09:04:37;17.90;99.90
23411;DHT22;11878;51.774;7.220;2023-05-07T09:07:39;18.00;99.90
23411;DHT22;11878;51.774;7.220;2023-05-07T09:10:42;17.90;99.90
23411;DHT22;11878;51.774;7.220;2023-05-07T09:13:44;18.20;99.90
23411;DHT22;11878;51.774;7.220;2023-05-07T09:16:46;18.00;99.90
23411;DHT22;11878;51.774;7.220;2023-05-07T09:19:48;17.90;99.90
23411;DHT22;11878;51.774;7.220;2023-05-07T09:22:51;18.10;99.90
23411;DHT22;11878;51.774;7.220;2023-05-07T09:26:01;18.10;99.90
23411;DHT22;11878;51.774;7.220;2023-05-07T09:29:07;18.20;99.90
23411;DHT22;11878;51.774;7.220;2023-05-07T09:32:12;18.40;99.90
23411;DHT22;11878;51.774;7.220;2023-05-07T09:35:16;18.90;99.90
23411;DHT22;11878;51.774;7.220;2023-05-07T09:38:28;18.60;99.90
23411;DHT22;11878;51.774;7.220;2023-05-07T09:41:32;18.50;99.90
23411;DHT22;11878;51.774;7.220;2023-05-07T09:44:44;18.40;99.90
23411;DHT22;11878;51.774;7.220;2023-05-07T09:47:55;18.30;99.90
23411;DHT22;11878;51.774;7.220;2023-05-07T09:51:02;18.30;99.90
23411;DHT22;11878;51.774;7.220;2023-05-07T09:54:07;18.30;99.90
23411;DHT22;11878;51.774;7.220;2023-05-07T09:57:13;18.80;99.90
23411;DHT22;11878;51.774;7.220;2023-05-07T10:00:21;18.80;99.90
23411;DHT22;11878;51.774;7.220;2023-05-07T10:03:24;19.20;99.90
23411;DHT22;11878;51.774;7.220;2023-05-07T10:06:34;19.60;99.90
23411;DHT22;11878;51.774;7.220;2023-05-07T10:09:37;20.00;99.90
23411;DHT22;11878;51.774;7.220;2023-05-07T10:12:47;20.30;99.90
23411;DHT22;11878;51.774;7.220;2023-05-07T10:15:57;19.80;99.90
23411;DHT22;11878;51.774;7.220;2023-05-07T10:19:03;19.70;99.90
23411;DHT22;11878;51.774;7.220;2023-05-07T10:22:07;19.50;99.90
23411;DHT22;11878;51.774;7.220;2023-05-07T10:25:25;19.70;99.90
23411;DHT22;11878;51.774;7.220;2023-05-07T10:28:33;20.30;99.90
23411;DHT22;11878;51.774;7.220;2023-05-07T10:31:57;21.10;99.90
23411;DHT22;11878;51.774;7.220;2023-05-07T10:35:06;21.30;99.90
23411;DHT22;11878;51.774;7.220;2023-05-07T10:38:11;21.40;99.90
23411;DHT22;11878;51.774;7.220;2023-05-07T10:41:15;20.60;99.90
23411;DHT22;11878;51.774;7.220;2023-05-07T10:44:29;21.30;99.90
23411;DHT22;11878;51.774;7.220;2023-05-07T10:48:06;21.50;99.90
23411;DHT22;11878;51.774;7.220;2023-05-07T10:51:31;21.60;99.90
23411;DHT22;11878;51.774;7.220;2023-05-07T10:58:47;21.30;99.90
23411;DHT22;11878;51.774;7.220;2023-05-07T11:02:02;21.00;99.90
23411;DHT22;11878;51.774;7.220;2023-05-07T11:05:23;21.10;99.90
23411;DHT22;11878;51.774;7.220;2023-05-07T11:11:55;20.50;99.90
23411;DHT22;11878;51.774;7.220;2023-05-07T11:15:46;20.60;99.90
23411;DHT22;11878;51.774;7.220;2023-05-07T11:19:03;20.50;99.90
23411;DHT22;11878;51.774;7.220;2023-05-07T11:25:42;21.00;99.90
23411;DHT22;11878;51.774;7.220;2023-05-07T11:28:52;20.90;99.90
23411;DHT22;11878;51.774;7.220;2023-05-07T11:31:56;20.90;99.90
23411;DHT22;11878;51.774;7.220;2023-05-07T11:35:03;20.90;99.90
23411;DHT22;11878;51.774;7.220;2023-05-07T11:38:05;20.70;99.90
23411;DHT22;11878;51.774;7.220;2023-05-07T11:41:09;20.80;99.90
23411;DHT22;11878;51.774;7.220;2023-05-07T11:44:10;20.80;99.90
23411;DHT22;11878;51.774;7.220;2023-05-07T11:47:17;20.70;99.90
23411;DHT22;11878;51.774;7.220;2023-05-07T11:50:20;20.70;99.90
23411;DHT22;11878;51.774;7.220;2023-05-07T11:53:25;20.70;99.90
23411;DHT22;11878;51.774;7.220;2023-05-07T11:56:26;20.60;99.90
23411;DHT22;11878;51.774;7.220;2023-05-07T11:59:28;20.80;99.90
23411;DHT22;11878;51.774;7.220;2023-05-07T12:02:30;20.90;99.90
23411;DHT22;11878;51.774;7.220;2023-05-07T12:05:33;21.00;99.90
23411;DHT22;11878;51.774;7.220;2023-05-07T12:08:39;21.00;99.90
23411;DHT22;11878;51.774;7.220;2023-05-07T12:11:46;21.30;99.90
23411;DHT22;11878;51.774;7.220;2023-05-07T12:14:48;21.40;99.90
23411;DHT22;11878;51.774;7.220;2023-05-07T12:17:50;21.30;99.90
23411;DHT22;11878;51.774;7.220;2023-05-07T12:20:52;21.10;99.90
23411;DHT22;11878;51.774;7.220;2023-05-07T12:23:54;21.30;99.90
23411;DHT22;11878;51.774;7.220;2023-05-07T12:26:56;21.30;99.90
23411;DHT22;11878;51.774;7.220;2023-05-07T12:29:58;21.50;99.90
23411;DHT22;11878;51.774;7.220;2023-05-07T12:33:00;21.30;99.90
23411;DHT22;11878;51.774;7.220;2023-05-07T12:36:05;21.40;99.90
23411;DHT22;11878;51.774;7.220;2023-05-07T12:39:09;21.40;99.90
23411;DHT22;11878;51.774;7.220;2023-05-07T12:42:15;21.10;99.90
23411;DHT22;11878;51.774;7.220;2023-05-07T12:45:17;20.90;99.90
23411;DHT22;11878;51.774;7.220;2023-05-07T12:48:20;21.30;99.90
23411;DHT22;11878;51.774;7.220;2023-05-07T12:51:22;21.30;99.90
23411;DHT22;11878;51.774;7.220;2023-05-07T12:54:32;21.20;99.90
23411;DHT22;11878;51.774;7.220;2023-05-07T12:57:50;20.90;99.90
23411;DHT22;11878;51.774;7.220;2023-05-07T13:00:53;20.90;99.90
23411;DHT22;11878;51.774;7.220;2023-05-07T13:03:55;21.10;99.90
23411;DHT22;11878;51.774;7.220;2023-05-07T13:06:58;21.10;99.90
23411;DHT22;11878;51.774;7.220;2023-05-07T13:10:01;20.80;99.90
23411;DHT22;11878;51.774;7.220;2023-05-07T13:13:03;20.60;99.90
23411;DHT22;11878;51.774;7.220;2023-05-07T13:16:08;21.00;99.90
23411;DHT22;11878;51.774;7.220;2023-05-07T13:19:10;20.80;99.90
23411;DHT22;11878;51.774;7.220;2023-05-07T13:22:12;20.30;99.90
23411;DHT22;11878;51.774;7.220;2023-05-07T13:25:14;20.70;99.90
23411;DHT22;11878;51.774;7.220;2023-05-07T13:28:16;20.80;99.90
23411;DHT22;11878;51.774;7.220;2023-05-07T13:31:18;20.80;99.90
23411;DHT22;11878;51.774;7.220;2023-05-07T13:34:20;21.00;99.90
23411;DHT22;11878;51.774;7.220;2023-05-07T13:37:22;20.70;99.90
23411;DHT22;11878;51.774;7.220;2023-05-07T13:40:24;20.80;99.90
23411;DHT22;11878;51.774;7.220;2023-05-07T13:43:26;20.50;99.90
23411;DHT22;11878;51.774;7.220;2023-05-07T13:46:27;20.60;99.90
23411;DHT22;11878;51.774;7.220;2023-05-07T13:49:32;20.70;99.90
23411;DHT22;11878;51.774;7.220;2023-05-07T13:52:34;20.70;99.90
23411;DHT22;11878;51.774;7.220;2023-05-07T13:55:36;20.70;99.90
23411;DHT22;11878;51.774;7.220;2023-05-07T13:58:38;20.60;99.90
23411;DHT22;11878;51.774;7.220;2023-05-07T14:01:57;20.60;99.90
23411;DHT22;11878;51.774;7.220;2023-05-07T14:04:59;20.60;99.90
23411;DHT22;11878;51.774;7.220;2023-05-07T14:08:01;20.40;99.90
23411;DHT22;11878;51.774;7.220;2023-05-07T14:11:03;20.30;99.90
23411;DHT22;11878;51.774;7.220;2023-05-07T14:14:05;20.30;99.90
23411;DHT22;11878;51.774;7.220;2023-05-07T14:17:06;20.20;99.90
23411;DHT22;11878;51.774;7.220;2023-05-07T14:20:12;20.30;99.90
23411;DHT22;11878;51.774;7.220;2023-05-07T14:23:15;20.30;99.90
23411;DHT22;11878;51.774;7.220;2023-05-07T14:26:18;20.30;99.90
23411;DHT22;11878;51.774;7.220;2023-05-07T14:29:20;20.30;99.90
23411;DHT22;11878;51.774;7.220;2023-05-07T14:32:25;20.20;99.90
23411;DHT22;11878;51.774;7.220;2023-05-07T14:35:26;20.10;99.90
23411;DHT22;11878;51.774;7.220;2023-05-07T14:38:28;19.70;99.90
23411;DHT22;11878;51.774;7.220;2023-05-07T14:41:30;19.60;99.90
23411;DHT22;11878;51.774;7.220;2023-05-07T14:44:34;19.60;99.90
23411;DHT22;11878;51.774;7.220;2023-05-07T14:47:36;19.40;99.90
23411;DHT22;11878;51.774;7.220;2023-05-07T14:50:38;19.50;99.90
23411;DHT22;11878;51.774;7.220;2023-05-07T14:53:41;19.50;99.90
23411;DHT22;11878;51.774;7.220;2023-05-07T14:56:43;19.50;99.90
23411;DHT22;11878;51.774;7.220;2023-05-07T14:59:45;19.50;99.90
23411;DHT22;11878;51.774;7.220;2023-05-07T15:02:48;19.30;99.90
23411;DHT22;11878;51.774;7.220;2023-05-07T15:05:50;19.30;99.90
23411;DHT22;11878;51.774;7.220;2023-05-07T15:08:52;19.30;99.90
23411;DHT22;11878;51.774;7.220;2023-05-07T15:11:54;19.30;99.90
23411;DHT22;11878;51.774;7.220;2023-05-07T15:14:56;19.20;99.90
23411;DHT22;11878;51.774;7.220;2023-05-07T15:17:58;19.10;99.90
23411;DHT22;11878;51.774;7.220;2023-05-07T15:21:02;19.10;99.90
23411;DHT22;11878;51.774;7.220;2023-05-07T15:24:04;19.10;99.90
23411;DHT22;11878;51.774;7.220;2023-05-07T15:27:06;18.90;99.90
23411;DHT22;11878;51.774;7.220;2023-05-07T15:30:09;18.90;99.90
23411;DHT22;11878;51.774;7.220;2023-05-07T15:33:12;18.90;99.90
23411;DHT22;11878;51.774;7.220;2023-05-07T15:36:14;18.90;99.90
23411;DHT22;11878;51.774;7.220;2023-05-07T15:39:16;18.90;99.90
23411;DHT22;11878;51.774;7.220;2023-05-07T15:42:17;18.90;99.90
23411;DHT22;11878;51.774;7.220;2023-05-07T15:45:19;18.90;99.90
23411;DHT22;11878;51.774;7.220;2023-05-07T15:48:21;18.90;99.90
23411;DHT22;11878;51.774;7.220;2023-05-07T15:51:23;18.80;99.90
23411;DHT22;11878;51.774;7.220;2023-05-07T15:54:24;18.90;99.90
23411;DHT22;11878;51.774;7.220;2023-05-07T15:57:26;18.70;99.90
23411;DHT22;11878;51.774;7.220;2023-05-07T16:00:28;18.80;99.90
23411;DHT22;11878;51.774;7.220;2023-05-07T16:03:30;18.60;99.90
23411;DHT22;11878;51.774;7.220;2023-05-07T16:06:32;18.60;99.90
23411;DHT22;11878;51.774;7.220;2023-05-07T16:09:34;18.60;99.90
23411;DHT22;11878;51.774;7.220;2023-05-07T16:12:36;18.60;99.90
23411;DHT22;11878;51.774;7.220;2023-05-07T16:15:38;18.70;99.90
23411;DHT22;11878;51.774;7.220;2023-05-07T16:18:40;18.70;99.90
23411;DHT22;11878;51.774;7.220;2023-05-07T16:21:41;18.70;99.90
23411;DHT22;11878;51.774;7.220;2023-05-07T16:24:43;18.80;99.90
23411;DHT22;11878;51.774;7.220;2023-05-07T16:27:45;18.60;99.90
23411;DHT22;11878;51.774;7.220;2023-05-07T16:30:47;18.60;99.90
23411;DHT22;11878;51.774;7.220;2023-05-07T16:33:49;18.50;99.90
23411;DHT22;11878;51.774;7.220;2023-05-07T16:36:51;18.50;99.90
23411;DHT22;11878;51.774;7.220;2023-05-07T16:39:53;18.40;99.90
23411;DHT22;11878;51.774;7.220;2023-05-07T16:42:54;18.30;99.90
23411;DHT22;11878;51.774;7.220;2023-05-07T16:45:56;18.20;99.90
23411;DHT22;11878;51.774;7.220;2023-05-07T16:48:58;18.20;99.90
23411;DHT22;11878;51.774;7.220;2023-05-07T16:52:00;18.20;99.90
23411;DHT22;11878;51.774;7.220;2023-05-07T16:55:04;18.10;99.90
23411;DHT22;11878;51.774;7.220;2023-05-07T16:58:10;18.10;99.90
23411;DHT22;11878;51.774;7.220;2023-05-07T17:01:12;18.10;99.90
23411;DHT22;11878;51.774;7.220;2023-05-07T17:04:15;18.10;99.90
23411;DHT22;11878;51.774;7.220;2023-05-07T17:07:17;18.00;99.90
23411;DHT22;11878;51.774;7.220;2023-05-07T17:10:19;18.00;99.90
23411;DHT22;11878;51.774;7.220;2023-05-07T17:13:21;18.00;99.90
23411;DHT22;11878;51.774;7.220;2023-05-07T17:16:22;17.90;99.90
23411;DHT22;11878;51.774;7.220;2023-05-07T17:19:24;17.90;99.90
23411;DHT22;11878;51.774;7.220;2023-05-07T17:22:26;17.90;99.90
23411;DHT22;11878;51.774;7.220;2023-05-07T17:25:28;17.80;99.90
23411;DHT22;11878;51.774;7.220;2023-05-07T17:28:32;17.80;99.90
23411;DHT22;11878;51.774;7.220;2023-05-07T17:31:34;17.80;99.90
23411;DHT22;11878;51.774;7.220;2023-05-07T17:34:36;17.80;99.90
23411;DHT22;11878;51.774;7.220;2023-05-07T17:37:38;17.70;99.90
23411;DHT22;11878;51.774;7.220;2023-05-07T17:40:40;17.60;99.90
23411;DHT22;11878;51.774;7.220;2023-05-07T17:43:42;17.60;99.90
23411;DHT22;11878;51.774;7.220;2023-05-07T17:46:44;17.60;99.90
23411;DHT22;11878;51.774;7.220;2023-05-07T17:49:45;17.60;99.90
23411;DHT22;11878;51.774;7.220;2023-05-07T17:52:47;17.60;99.90
23411;DHT22;11878;51.774;7.220;2023-05-07T17:55:49;17.60;99.90
23411;DHT22;11878;51.774;7.220;2023-05-07T17:58:50;17.50;99.90
23411;DHT22;11878;51.774;7.220;2023-05-07T18:02:00;17.50;99.90
23411;DHT22;11878;51.774;7.220;2023-05-07T18:05:02;17.40;99.90
23411;DHT22;11878;51.774;7.220;2023-05-07T18:08:05;17.30;99.90
23411;DHT22;11878;51.774;7.220;2023-05-07T18:11:07;17.30;99.90
23411;DHT22;11878;51.774;7.220;2023-05-07T18:14:09;17.20;99.90
23411;DHT22;11878;51.774;7.220;2023-05-07T18:17:11;17.20;99.90
23411;DHT22;11878;51.774;7.220;2023-05-07T18:20:12;17.20;99.90
23411;DHT22;11878;51.774;7.220;2023-05-07T18:23:14;17.10;99.90
23411;DHT22;11878;51.774;7.220;2023-05-07T18:26:16;17.10;99.90
23411;DHT22;11878;51.774;7.220;2023-05-07T18:29:18;17.00;99.90
23411;DHT22;11878;51.774;7.220;2023-05-07T18:32:19;17.00;99.90
23411;DHT22;11878;51.774;7.220;2023-05-07T18:35:22;16.90;99.90
23411;DHT22;11878;51.774;7.220;2023-05-07T18:38:24;16.90;99.90
23411;DHT22;11878;51.774;7.220;2023-05-07T18:41:26;16.80;99.90
23411;DHT22;11878;51.774;7.220;2023-05-07T18:44:27;16.80;99.90
23411;DHT22;11878;51.774;7.220;2023-05-07T18:47:31;16.80;99.90
23411;DHT22;11878;51.774;7.220;2023-05-07T18:50:33;16.80;99.90
23411;DHT22;11878;51.774;7.220;2023-05-07T18:53:35;16.80;99.90
23411;DHT22;11878;51.774;7.220;2023-05-07T18:56:36;16.70;99.90
23411;DHT22;11878;51.774;7.220;2023-05-07T18:59:38;16.70;99.90
23411;DHT22;11878;51.774;7.220;2023-05-07T19:02:40;16.60;99.90
23411;DHT22;11878;51.774;7.220;2023-05-07T19:05:43;16.50;99.90
23411;DHT22;11878;51.774;7.220;2023-05-07T19:08:45;16.50;99.90
23411;DHT22;11878;51.774;7.220;2023-05-07T19:11:46;16.40;99.90
23411;DHT22;11878;51.774;7.220;2023-05-07T19:14:48;16.40;99.90
23411;DHT22;11878;51.774;7.220;2023-05-07T19:17:50;16.40;99.90
23411;DHT22;11878;51.774;7.220;2023-05-07T19:20:52;16.30;99.90
23411;DHT22;11878;51.774;7.220;2023-05-07T19:23:56;16.30;99.90
23411;DHT22;11878;51.774;7.220;2023-05-07T19:26:58;16.20;99.90
23411;DHT22;11878;51.774;7.220;2023-05-07T19:29:59;16.10;99.90